Time;durP1;ratioP1;P1;durP2;ratioP2;P2;SDS_P1;SDS_P2;PMS_P1;PMS_P2;Temp;Humidity;BMP_temperature;BMP_pressure;BME280_temperature;BME280_humidity;BME280_pressure;Samples;Min_cycle;Max_cycle;Signal;HPM_P1;HPM_P2
2021/03/28 00:00:54;;;;;;;1.57;1.30;;;5.60;94.60;;;;;;4991108;28;20460;-79
2021/03/28 00:03:26;;;;;;;1.50;1.30;;;5.60;94.20;;;;;;4974775;28;21003;-79
2021/03/28 00:05:53;;;;;;;1.60;1.40;;;5.60;94.10;;;;;;4982796;28;20473;-79
2021/03/28 00:08:24;;;;;;;1.57;1.30;;;5.60;94.10;;;;;;4999800;28;21059;-79
2021/03/28 00:10:53;;;;;;;1.50;1.30;;;5.60;94.20;;;;;;4977360;28;20836;-79
2021/03/28 00:13:24;;;;;;;1.57;1.30;;;5.60;94.30;;;;;;5005009;28;20572;-79
2021/03/28 00:16:04;;;;;;;1.50;1.27;;;5.60;94.30;;;;;;4980821;28;20775;-79
2021/03/28 00:18:34;;;;;;;1.57;1.40;;;5.60;94.10;;;;;;5002047;28;20469;-79
2021/03/28 00:21:12;;;;;;;1.53;1.30;;;5.60;94.40;;;;;;4977481;28;20469;-80
2021/03/28 00:23:47;;;;;;;1.60;1.50;;;5.70;94.60;;;;;;5003631;28;20485;-80
2021/03/28 00:26:24;;;;;;;1.60;1.40;;;5.70;94.30;;;;;;4987215;28;21066;-79
2021/03/28 00:29:02;;;;;;;1.50;1.30;;;5.80;94.40;;;;;;4996708;28;20464;-80
2021/03/28 00:31:31;;;;;;;1.57;1.40;;;5.80;94.30;;;;;;4985200;28;20472;-80
2021/03/28 00:34:04;;;;;;;1.60;1.40;;;5.90;94.20;;;;;;4997484;28;20902;-79
2021/03/28 00:36:36;;;;;;;1.60;1.30;;;5.90;94.00;;;;;;4985835;28;21001;-79
2021/03/28 00:39:09;;;;;;;1.53;1.30;;;6.00;94.00;;;;;;5002470;28;20489;-79
2021/03/28 00:41:56;;;;;;;1.60;1.40;;;6.00;94.10;;;;;;4982042;28;20574;-80
2021/03/28 00:44:24;;;;;;;1.60;1.40;;;6.10;94.30;;;;;;4998417;28;20457;-80
2021/03/28 00:46:58;;;;;;;1.60;1.40;;;6.10;94.10;;;;;;4989523;28;20483;-81
2021/03/28 00:49:30;;;;;;;1.57;1.30;;;6.10;94.20;;;;;;4995316;28;20568;-80
2021/03/28 00:52:00;;;;;;;1.53;1.30;;;6.10;94.30;;;;;;4975237;28;20493;-80
2021/03/28 00:54:40;;;;;;;1.57;1.30;;;6.10;94.30;;;;;;4991443;28;20466;-79
2021/03/28 00:57:21;;;;;;;1.57;1.30;;;6.10;94.30;;;;;;4986654;28;20486;-79
2021/03/28 00:59:54;;;;;;;1.60;1.40;;;6.20;94.20;;;;;;4994722;28;20843;-80
2021/03/28 01:02:26;;;;;;;1.50;1.30;;;6.20;94.10;;;;;;4984277;28;20510;-80
2021/03/28 01:05:29;;;;;;;1.53;1.30;;;6.20;94.10;;;;;;4994986;28;20560;-79
2021/03/28 01:08:01;;;;;;;1.60;1.37;;;6.20;94.10;;;;;;4995349;28;20493;-80
2021/03/28 01:10:53;;;;;;;1.50;1.20;;;6.20;94.10;;;;;;4986764;28;20489;-79
2021/03/28 01:13:56;;;;;;;1.60;1.30;;;6.20;94.10;;;;;;4959787;28;20580;-80
2021/03/28 01:16:59;;;;;;;1.50;1.30;;;6.20;94.40;;;;;;4976268;28;20576;-81
2021/03/28 01:19:50;;;;;;;1.57;1.30;;;6.20;94.80;;;;;;4963332;28;20460;-79
2021/03/28 01:22:21;;;;;;;1.57;1.40;;;6.30;94.50;;;;;;4969743;28;20981;-80
2021/03/28 01:24:58;;;;;;;1.60;1.40;;;6.30;94.40;;;;;;4990357;28;20511;-80
2021/03/28 01:27:29;;;;;;;1.53;1.20;;;6.30;94.30;;;;;;4973364;28;20505;-80
2021/03/28 01:30:05;;;;;;;1.60;1.40;;;6.30;94.60;;;;;;4985830;28;20490;-79
2021/03/28 01:32:34;;;;;;;1.53;1.27;;;6.30;94.80;;;;;;4991063;28;20985;-79
2021/03/28 01:35:16;;;;;;;1.60;1.40;;;6.40;94.50;;;;;;4990871;28;20476;-79
2021/03/28 01:37:47;;;;;;;1.57;1.30;;;6.40;94.40;;;;;;4977292;28;20481;-79
2021/03/28 01:40:20;;;;;;;1.53;1.30;;;6.40;94.60;;;;;;4989800;28;20882;-80
2021/03/28 01:43:00;;;;;;;1.60;1.40;;;6.40;94.70;;;;;;4988138;28;20586;-80
2021/03/28 01:45:37;;;;;;;1.60;1.30;;;6.40;94.90;;;;;;4969804;28;20468;-80
2021/03/28 01:48:22;;;;;;;1.53;1.30;;;6.40;94.90;;;;;;4987690;28;20954;-80
2021/03/28 01:51:01;;;;;;;1.57;1.30;;;6.40;95.00;;;;;;4982274;28;20493;-80
2021/03/28 01:53:46;;;;;;;1.50;1.30;;;6.40;95.10;;;;;;4999357;28;20492;-80
2021/03/28 01:56:19;;;;;;;1.57;1.40;;;6.40;95.10;;;;;;4973415;28;20722;-80
2021/03/28 01:59:01;;;;;;;1.53;1.27;;;6.40;95.00;;;;;;5003545;28;20472;-79
2021/03/28 02:01:41;;;;;;;1.60;1.30;;;6.40;95.20;;;;;;4982360;28;20578;-80
2021/03/28 02:04:26;;;;;;;1.50;1.20;;;6.40;95.10;;;;;;4999893;28;20479;-80
2021/03/28 02:07:21;;;;;;;1.57;1.30;;;6.50;95.10;;;;;;4986835;28;21029;-79
2021/03/28 02:09:56;;;;;;;4.27;4.00;;;6.50;95.20;;;;;;4989017;28;20546;-80
2021/03/28 02:12:38;;;;;;;1.53;1.30;;;6.50;95.30;;;;;;4976496;28;20492;-79
2021/03/28 02:15:44;;;;;;;1.53;1.30;;;6.50;95.20;;;;;;4991387;28;20464;-80
2021/03/28 02:18:45;;;;;;;1.60;1.40;;;6.50;95.40;;;;;;4968421;28;20858;-79
2021/03/28 02:21:16;;;;;;;1.57;1.27;;;6.50;95.30;;;;;;4978273;28;21003;-80
2021/03/28 02:23:51;;;;;;;1.50;1.20;;;6.50;95.10;;;;;;4997367;28;21230;-81
2021/03/28 02:26:33;;;;;;;1.60;1.30;;;6.60;95.00;;;;;;4980918;28;20491;-80
2021/03/28 02:29:20;;;;;;;1.53;1.27;;;6.50;95.40;;;;;;4987131;28;20961;-80
2021/03/28 02:32:12;;;;;;;1.53;1.30;;;6.40;95.60;;;;;;4983243;28;20486;-79
2021/03/28 02:34:58;;;;;;;1.50;1.30;;;6.40;95.80;;;;;;4982692;28;20469;-79
2021/03/28 02:37:40;;;;;;;1.53;1.30;;;6.30;95.80;;;;;;4983777;28;20939;-79
2021/03/28 02:40:12;;;;;;;1.50;1.30;;;6.30;96.20;;;;;;4990387;28;20519;-80
2021/03/28 02:42:57;;;;;;;1.53;1.30;;;6.30;96.10;;;;;;4988497;28;20490;-79
2021/03/28 02:45:26;;;;;;;1.57;1.30;;;6.20;96.10;;;;;;4990499;28;20783;-81
2021/03/28 02:48:33;;;;;;;1.57;1.23;;;6.20;96.40;;;;;;4991342;28;20481;-79
2021/03/28 02:51:16;;;;;;;1.57;1.30;;;6.20;96.70;;;;;;4978634;28;20488;-80
2021/03/28 02:54:19;;;;;;;1.57;1.30;;;6.20;97.40;;;;;;4993782;28;20551;-79
2021/03/28 02:57:14;;;;;;;1.50;1.20;;;6.20;97.50;;;;;;4993040;28;20551;-79
2021/03/28 02:59:51;;;;;;;1.57;1.40;;;6.20;97.60;;;;;;4993106;28;20465;-80
2021/03/28 03:02:54;;;;;;;1.57;1.30;;;6.20;97.60;;;;;;4993160;28;20525;-79
2021/03/28 03:05:44;;;;;;;1.57;1.30;;;6.10;97.70;;;;;;4988598;28;20471;-81
2021/03/28 03:08:16;;;;;;;1.53;1.20;;;6.10;97.60;;;;;;4982890;28;20485;-79
2021/03/28 03:11:02;;;;;;;1.50;1.20;;;6.10;97.70;;;;;;4984325;28;20508;-79
2021/03/28 03:13:49;;;;;;;1.50;1.20;;;6.10;97.60;;;;;;4980702;28;20492;-79
2021/03/28 03:16:24;;;;;;;1.57;1.30;;;6.10;97.30;;;;;;4981281;28;20473;-80
2021/03/28 03:19:24;;;;;;;1.60;1.40;;;6.00;97.70;;;;;;4987968;28;20736;-79
2021/03/28 03:22:33;;;;;;;1.60;1.30;;;6.00;97.90;;;;;;4972870;28;21615;-81
2021/03/28 03:25:44;;;;;;;1.60;1.40;;;6.00;97.90;;;;;;4992989;28;20930;-80
2021/03/28 03:28:52;;;;;;;1.50;1.30;;;6.00;97.80;;;;;;4975654;28;20495;-79
2021/03/28 03:31:40;;;;;;;1.53;1.30;;;6.00;98.00;;;;;;4988052;28;20475;-79
2021/03/28 03:34:29;;;;;;;1.60;1.47;;;6.00;97.70;;;;;;4995383;28;21003;-79
2021/03/28 03:37:12;;;;;;;1.60;1.30;;;6.00;97.80;;;;;;4991819;28;20569;-79
2021/03/28 03:40:11;;;;;;;1.57;1.40;;;6.00;97.40;;;;;;4998910;28;20456;-80
2021/03/28 03:42:58;;;;;;;1.57;1.20;;;5.90;97.90;;;;;;4988454;28;20490;-78
2021/03/28 03:45:37;;;;;;;1.53;1.30;;;6.00;97.70;;;;;;4993953;28;20464;-79
2021/03/28 03:48:14;;;;;;;1.50;1.27;;;5.90;97.50;;;;;;4994171;28;20501;-79
2021/03/28 03:51:08;;;;;;;1.57;1.30;;;6.00;97.60;;;;;;4990818;28;20512;-79
2021/03/28 03:53:50;;;;;;;1.57;1.30;;;6.00;97.10;;;;;;4976083;28;20492;-79
2021/03/28 03:56:27;;;;;;;1.60;1.40;;;6.00;97.40;;;;;;4985211;28;20468;-79
2021/03/28 03:59:07;;;;;;;1.57;1.30;;;6.00;97.40;;;;;;4998139;28;20475;-79
2021/03/28 04:01:42;;;;;;;1.53;1.30;;;6.00;97.00;;;;;;4988031;28;21048;-80
2021/03/28 04:04:18;;;;;;;1.53;1.27;;;6.00;96.90;;;;;;4992564;28;20495;-79
2021/03/28 04:07:26;;;;;;;1.53;1.30;;;6.00;97.10;;;;;;4982783;28;20499;-79
2021/03/28 04:10:12;;;;;;;1.60;1.30;;;6.00;97.00;;;;;;4971131;28;20492;-80
2021/03/28 04:12:55;;;;;;;1.60;1.40;;;6.00;97.10;;;;;;4991100;28;20485;-80
2021/03/28 04:15:34;;;;;;;1.53;1.40;;;6.00;96.80;;;;;;4985099;28;20461;-79
2021/03/28 04:18:32;;;;;;;1.57;1.30;;;5.90;97.10;;;;;;4985742;28;21117;-80
2021/03/28 04:21:11;;;;;;;1.60;1.40;;;5.90;96.90;;;;;;4978124;28;20602;-80
2021/03/28 04:23:51;;;;;;;1.60;1.30;;;5.90;97.10;;;;;;5000317;28;20883;-80
2021/03/28 04:26:27;;;;;;;1.60;1.37;;;5.90;97.20;;;;;;4984538;28;20487;-79
2021/03/28 04:28:56;;;;;;;1.50;1.30;;;5.90;97.10;;;;;;4982868;28;21141;-80
2021/03/28 04:31:52;;;;;;;1.53;1.30;;;5.90;97.00;;;;;;4986608;28;20483;-79
2021/03/28 04:34:23;;;;;;;1.60;1.30;;;5.90;97.10;;;;;;4991675;28;20518;-80
2021/03/28 04:37:14;;;;;;;1.50;1.20;;;5.90;97.10;;;;;;4990762;28;20588;-79
2021/03/28 04:40:26;;;;;;;1.60;1.40;;;5.90;97.20;;;;;;4992489;28;20465;-79
2021/03/28 04:43:23;;;;;;;1.57;1.30;;;6.00;97.00;;;;;;4990341;28;20979;-79
2021/03/28 04:46:23;;;;;;;1.60;1.40;;;6.00;96.80;;;;;;4983580;28;20461;-79
2021/03/28 04:49:07;;;;;;;3.10;2.90;;;6.00;96.90;;;;;;4992757;28;21121;-79
2021/03/28 04:52:21;;;;;;;1.50;1.30;;;6.00;96.70;;;;;;4988106;28;20484;-79
2021/03/28 04:55:16;;;;;;;1.57;1.30;;;6.00;97.00;;;;;;4967975;28;20461;-80
2021/03/28 04:58:16;;;;;;;1.60;1.40;;;6.00;96.90;;;;;;4998552;28;20484;-80
2021/03/28 05:01:06;;;;;;;1.50;1.30;;;6.00;96.90;;;;;;4980389;28;20842;-79
2021/03/28 05:04:01;;;;;;;1.57;1.30;;;6.10;96.90;;;;;;4977467;28;20482;-79
2021/03/28 05:06:47;;;;;;;1.57;1.30;;;6.10;96.90;;;;;;4984588;28;20507;-78
2021/03/28 05:09:39;;;;;;;1.60;1.30;;;6.10;96.60;;;;;;4990964;28;20471;-79
2021/03/28 05:12:34;;;;;;;1.57;1.37;;;6.20;96.70;;;;;;4990256;28;20508;-78
2021/03/28 05:15:38;;;;;;;1.60;1.40;;;6.20;96.70;;;;;;4985862;28;21033;-76
2021/03/28 05:19:01;;;;;;;1.60;1.20;;;6.20;96.80;;;;;;4987784;28;20532;-77
2021/03/28 05:22:21;;;;;;;1.50;1.23;;;6.20;97.20;;;;;;4982732;28;20480;-77
2021/03/28 05:25:13;;;;;;;1.57;1.30;;;6.30;96.90;;;;;;4984874;28;20499;-76
2021/03/28 05:28:10;;;;;;;1.50;1.20;;;6.30;97.10;;;;;;4974665;28;20497;-76
2021/03/28 05:30:57;;;;;;;1.50;1.30;;;6.30;96.90;;;;;;4989465;28;20493;-77
2021/03/28 05:33:50;;;;;;;1.57;1.30;;;6.30;97.10;;;;;;4972521;28;20492;-76
2021/03/28 05:36:29;;;;;;;1.53;1.23;;;6.30;97.20;;;;;;4946937;28;20522;-78
2021/03/28 05:39:35;;;;;;;1.57;1.30;;;6.30;97.30;;;;;;4993857;28;20482;-76
2021/03/28 05:42:23;;;;;;;1.53;1.30;;;6.40;97.50;;;;;;4981181;28;20518;-76
2021/03/28 05:45:21;;;;;;;1.53;1.20;;;6.40;97.30;;;;;;4991232;28;20861;-76
2021/03/28 05:48:19;;;;;;;1.53;1.30;;;6.40;97.70;;;;;;4992095;28;20535;-77
2021/03/28 05:50:57;;;;;;;1.60;1.40;;;6.40;97.70;;;;;;4983233;28;20876;-76
2021/03/28 05:54:16;;;;;;;1.50;1.20;;;6.40;97.70;;;;;;4993006;28;20488;-76
2021/03/28 05:57:17;;;;;;;1.53;1.37;;;6.50;97.60;;;;;;4917929;29;20492;-76
2021/03/28 05:59:59;;;;;;;1.50;1.20;;;6.50;97.60;;;;;;4975521;28;20468;-75
2021/03/28 06:03:23;;;;;;;1.57;1.30;;;6.50;97.90;;;;;;4989579;28;20483;-76
2021/03/28 06:06:27;;;;;;;1.53;1.20;;;6.60;97.80;;;;;;4974626;28;20461;-76
2021/03/28 06:09:36;;;;;;;1.57;1.30;;;6.60;98.00;;;;;;4986477;28;21141;-79
2021/03/28 06:12:29;;;;;;;1.50;1.20;;;6.70;97.90;;;;;;4985940;28;20484;-77
2021/03/28 06:15:32;;;;;;;1.60;1.30;;;6.80;97.80;;;;;;4983701;28;20500;-78
2021/03/28 06:18:41;;;;;;;1.53;1.20;;;6.80;97.80;;;;;;4986300;28;20464;-78
2021/03/28 06:21:38;;;;;;;1.57;1.30;;;6.80;97.80;;;;;;4958741;28;20572;-78
2021/03/28 06:24:34;;;;;;;1.60;1.40;;;6.90;97.90;;;;;;4983336;28;20953;-78
2021/03/28 06:27:30;;;;;;;1.60;1.30;;;7.00;97.80;;;;;;4985212;28;20480;-78
2021/03/28 06:30:24;;;;;;;1.53;1.30;;;7.00;98.00;;;;;;4982368;28;20548;-78
2021/03/28 06:33:31;;;;;;;1.50;1.20;;;7.00;98.00;;;;;;4989158;28;20516;-78
2021/03/28 06:36:29;;;;;;;1.50;1.20;;;7.10;97.90;;;;;;4977319;28;20476;-78
2021/03/28 06:39:21;;;;;;;1.53;1.20;;;7.20;97.80;;;;;;4994341;28;20477;-78
2021/03/28 06:42:29;;;;;;;1.60;1.40;;;7.20;97.60;;;;;;4987292;28;20921;-78
2021/03/28 06:45:17;;;;;;;1.57;1.20;;;7.30;97.60;;;;;;4986250;28;20559;-79
2021/03/28 06:48:10;;;;;;;1.60;1.27;;;7.40;97.50;;;;;;4954809;28;20484;-79
2021/03/28 06:51:05;;;;;;;1.53;1.20;;;7.40;97.40;;;;;;4987425;28;20485;-78
2021/03/28 06:54:12;;;;;;;1.53;1.20;;;7.50;97.40;;;;;;4973775;28;20862;-79
2021/03/28 06:57:23;;;;;;;1.60;1.30;;;7.50;97.20;;;;;;4975258;28;21055;-79
2021/03/28 07:00:13;;;;;;;1.53;1.20;;;7.60;97.10;;;;;;4995343;28;20460;-79
2021/03/28 07:03:10;;;;;;;1.57;1.20;;;7.70;97.00;;;;;;4995086;28;20480;-79
2021/03/28 07:05:42;;;;;;;1.60;1.30;;;7.80;97.00;;;;;;4985706;28;20464;-79
2021/03/28 07:08:29;;;;;;;1.60;1.20;;;7.80;96.70;;;;;;4975247;28;20484;-78
2021/03/28 07:11:22;;;;;;;1.60;1.30;;;7.90;96.60;;;;;;4980335;28;20480;-79
2021/03/28 07:14:26;;;;;;;1.50;1.20;;;7.90;96.60;;;;;;4994719;28;20496;-80
2021/03/28 07:17:21;;;;;;;1.57;1.20;;;8.00;96.30;;;;;;4981594;28;20479;-79
2021/03/28 07:20:21;;;;;;;1.57;1.23;;;8.10;96.30;;;;;;4989354;28;20472;-79
2021/03/28 07:23:25;;;;;;;1.60;1.20;;;8.20;96.30;;;;;;4976067;28;20484;-78
2021/03/28 07:25:55;;;;;;;1.53;1.20;;;8.20;95.90;;;;;;4980238;28;20460;-79
2021/03/28 07:28:57;;;;;;;1.60;1.30;;;8.30;95.90;;;;;;5006153;28;20810;-79
2021/03/28 07:32:05;;;;;;;1.60;1.20;;;8.40;95.70;;;;;;4981263;28;20557;-79
2021/03/28 07:35:18;;;;;;;1.50;1.10;;;8.40;95.80;;;;;;4964453;28;20982;-79
2021/03/28 07:38:18;;;;;;;1.60;1.20;;;8.50;95.40;;;;;;4980944;28;20479;-79
2021/03/28 07:41:17;;;;;;;1.57;1.20;;;8.60;95.40;;;;;;4986997;28;20486;-80
2021/03/28 07:44:16;;;;;;;1.60;1.23;;;8.70;95.30;;;;;;4974066;28;21053;-79
2021/03/28 07:47:08;;;;;;;1.53;1.20;;;8.70;95.20;;;;;;4990114;28;20550;-79
2021/03/28 07:50:09;;;;;;;1.50;1.10;;;8.80;95.10;;;;;;4991261;28;20480;-79
2021/03/28 07:53:09;;;;;;;1.50;1.10;;;8.90;95.00;;;;;;4996261;28;20480;-79
2021/03/28 07:55:47;;;;;;;1.50;1.20;;;9.00;94.60;;;;;;4992128;28;20488;-80
2021/03/28 07:58:35;;;;;;;1.50;1.10;;;9.20;94.50;;;;;;4978230;28;20477;-79
2021/03/28 08:01:32;;;;;;;1.60;1.20;;;9.30;93.90;;;;;;4970910;28;20913;-79
2021/03/28 08:04:20;;;;;;;1.53;1.17;;;9.40;93.30;;;;;;4999424;28;20494;-79
2021/03/28 08:07:05;;;;;;;1.50;1.10;;;9.50;93.30;;;;;;4985041;28;20480;-80
2021/03/28 08:10:02;;;;;;;1.57;1.20;;;9.70;92.30;;;;;;4995593;28;20461;-80
2021/03/28 08:12:45;;;;;;;1.57;1.10;;;9.90;92.00;;;;;;4988971;28;20576;-80
2021/03/28 08:15:35;;;;;;;1.53;1.10;;;10.10;91.50;;;;;;4990667;28;20475;-80
2021/03/28 08:18:27;;;;;;;1.53;1.20;;;10.20;90.60;;;;;;4994744;28;20484;-80
2021/03/28 08:21:15;;;;;;;1.50;1.10;;;10.40;89.50;;;;;;4976405;28;20948;-80
2021/03/28 08:24:21;;;;;;;1.50;1.10;;;10.60;89.70;;;;;;5002934;28;20497;-80
2021/03/28 08:27:15;;;;;;;1.50;1.07;;;10.70;89.20;;;;;;4981386;28;20479;-80
2021/03/28 08:29:58;;;;;;;1.60;1.10;;;10.90;88.70;;;;;;4995733;28;20473;-80
2021/03/28 08:32:43;;;;;;;1.53;1.10;;;11.00;88.40;;;;;;4990644;28;20564;-80
2021/03/28 08:35:29;;;;;;;1.60;1.20;;;11.20;88.20;;;;;;4991948;28;20465;-79
2021/03/28 08:38:30;;;;;;;1.50;1.10;;;11.50;87.70;;;;;;4993688;28;20476;-80
2021/03/28 08:41:45;;;;;;;1.50;1.00;;;11.70;87.00;;;;;;4981850;28;20465;-80
2021/03/28 08:44:42;;;;;;;1.60;1.00;;;12.00;86.50;;;;;;4999109;28;20832;-81
2021/03/28 08:47:41;;;;;;;1.53;1.00;;;12.40;85.70;;;;;;4988427;28;20552;-80
2021/03/28 08:50:17;;;;;;;1.60;1.10;;;12.60;85.20;;;;;;4989370;28;20568;-80
2021/03/28 08:53:17;;;;;;;1.57;1.00;;;12.90;84.90;;;;;;4992507;28;20493;-81
2021/03/28 08:56:25;;;;;;;1.57;1.00;;;13.10;84.40;;;;;;4992443;28;21012;-80
2021/03/28 08:58:59;;;;;;;1.53;0.90;;;13.40;83.70;;;;;;4918205;29;20547;-78
2021/03/28 09:01:40;;;;;;;1.57;1.00;;;13.70;83.30;;;;;;4975660;28;20510;-79
2021/03/28 09:04:13;;;;;;;1.60;1.10;;;13.90;82.40;;;;;;4998641;28;20975;-81
2021/03/28 09:06:49;;;;;;;2.43;2.23;;;14.10;81.10;;;;;;4983208;28;20520;-81
2021/03/28 09:09:34;;;;;;;1.50;1.10;;;14.20;81.30;;;;;;4998413;28;20496;-79
2021/03/28 09:12:10;;;;;;;1.57;1.00;;;14.30;80.90;;;;;;4988519;28;20561;-81
2021/03/28 09:15:19;;;;;;;1.50;1.00;;;14.30;80.60;;;;;;4996567;28;20469;-79
2021/03/28 09:17:59;;;;;;;1.50;1.00;;;14.40;81.30;;;;;;4990239;28;20480;-79
2021/03/28 09:20:46;;;;;;;1.53;0.90;;;14.50;80.80;;;;;;4991449;28;20835;-80
2021/03/28 09:23:28;;;;;;;1.50;1.00;;;14.50;80.10;;;;;;4968392;28;20489;-78
2021/03/28 09:26:08;;;;;;;1.57;1.03;;;14.50;80.00;;;;;;4975017;28;20469;-79
2021/03/28 09:28:43;;;;;;;1.53;1.00;;;14.50;79.00;;;;;;5000525;28;20468;-81
2021/03/28 09:31:19;;;;;;;1.50;0.90;;;14.50;78.30;;;;;;4980039;28;21018;-79
2021/03/28 09:34:05;;;;;;;1.60;1.00;;;14.50;78.30;;;;;;4999026;28;20488;-79
2021/03/28 09:36:39;;;;;;;1.50;1.00;;;14.50;78.00;;;;;;4981166;28;20484;-80
2021/03/28 09:39:44;;;;;;;1.50;1.03;;;14.40;78.10;;;;;;4997345;28;20515;-81
2021/03/28 09:42:46;;;;;;;1.57;1.10;;;14.40;78.60;;;;;;4984111;28;20488;-80
2021/03/28 09:45:38;;;;;;;1.50;1.00;;;14.50;78.70;;;;;;4989553;28;20459;-80
2021/03/28 09:48:28;;;;;;;1.50;1.00;;;14.50;77.80;;;;;;4975674;28;20507;-80
2021/03/28 09:51:04;;;;;;;1.50;1.00;;;14.50;78.10;;;;;;4966696;28;20503;-80
2021/03/28 09:53:59;;;;;;;1.50;1.00;;;14.60;77.80;;;;;;5001161;28;20499;-80
2021/03/28 09:56:58;;;;;;;1.50;0.90;;;14.60;77.20;;;;;;4975343;28;20916;-79
2021/03/28 10:00:05;;;;;;;1.53;1.00;;;14.60;77.40;;;;;;4984992;28;20475;-80
2021/03/28 10:02:42;;;;;;;1.50;1.00;;;14.70;76.60;;;;;;4986796;28;20491;-79
2021/03/28 10:05:20;;;;;;;1.50;1.00;;;14.90;76.20;;;;;;4982298;28;20785;-79
2021/03/28 10:07:52;;;;;;;1.60;1.10;;;15.20;75.50;;;;;;4992781;28;20479;-80
2021/03/28 10:10:54;;;;;;;1.50;0.90;;;15.40;74.90;;;;;;4983864;28;20493;-80
2021/03/28 10:13:41;;;;;;;1.50;1.00;;;15.70;74.20;;;;;;4970042;28;20503;-80
2021/03/28 10:16:18;;;;;;;1.53;1.00;;;16.00;74.00;;;;;;4980627;28;20484;-81
2021/03/28 10:18:59;;;;;;;1.53;1.00;;;16.20;72.50;;;;;;4993606;28;20469;-81
2021/03/28 10:21:50;;;;;;;1.50;0.97;;;16.40;73.00;;;;;;4977665;28;20485;-77
2021/03/28 10:24:44;;;;;;;1.50;1.00;;;16.40;72.70;;;;;;4975656;28;20464;-78
2021/03/28 10:27:36;;;;;;;1.53;1.00;;;16.30;72.30;;;;;;4985623;28;20546;-79
2021/03/28 10:30:13;;;;;;;1.60;0.97;;;16.00;70.00;;;;;;4986641;28;20517;-81
2021/03/28 10:32:56;;;;;;;1.50;0.97;;;15.90;71.20;;;;;;4988519;28;21077;-81
2021/03/28 10:35:52;;;;;;;1.50;0.90;;;15.80;70.20;;;;;;4989675;28;20465;-79
2021/03/28 10:38:41;;;;;;;1.50;1.00;;;15.80;70.80;;;;;;4977439;28;20953;-79
2021/03/28 10:41:22;;;;;;;1.50;0.90;;;16.00;70.70;;;;;;4980893;28;20510;-80
2021/03/28 10:44:02;;;;;;;1.50;0.90;;;16.30;70.10;;;;;;4996578;28;20471;-80
2021/03/28 10:47:17;;;;;;;1.60;1.20;;;16.20;69.00;;;;;;4982246;28;21084;-80
2021/03/28 10:50:20;;;;;;;1.57;1.00;;;16.10;68.50;;;;;;4992310;28;20907;-78
2021/03/28 10:53:24;;;;;;;1.50;0.90;;;16.00;69.60;;;;;;4993574;28;20479;-80
2021/03/28 10:56:17;;;;;;;1.50;1.00;;;15.90;70.30;;;;;;4978027;28;20461;-80
2021/03/28 10:59:15;;;;;;;1.53;1.00;;;15.80;70.80;;;;;;4996944;28;21093;-80
2021/03/28 11:02:18;;;;;;;1.50;1.00;;;15.60;71.80;;;;;;4980831;28;20531;-79
2021/03/28 11:05:20;;;;;;;1.53;1.00;;;15.60;71.80;;;;;;4990126;28;20466;-81
2021/03/28 11:08:06;;;;;;;1.50;1.00;;;15.70;71.70;;;;;;4989099;28;20526;-81
2021/03/28 11:11:06;;;;;;;1.50;0.90;;;16.20;71.10;;;;;;4977183;28;20509;-81
2021/03/28 11:13:48;;;;;;;1.50;0.93;;;16.30;70.10;;;;;;4980218;28;20486;-81
2021/03/28 11:16:25;;;;;;;1.50;1.00;;;16.30;70.30;;;;;;4981315;28;20860;-81
2021/03/28 11:19:31;;;;;;;1.50;0.90;;;16.20;70.20;;;;;;4998927;28;20724;-81
2021/03/28 11:22:11;;;;;;;1.50;0.97;;;16.20;70.40;;;;;;4985798;28;20487;-78
2021/03/28 11:24:54;;;;;;;1.50;1.00;;;16.10;69.40;;;;;;4994944;28;20464;-81
2021/03/28 11:28:03;;;;;;;1.50;0.90;;;16.10;69.80;;;;;;4991075;28;20480;-80
2021/03/28 11:30:40;;;;;;;1.50;1.00;;;16.30;69.40;;;;;;4984652;28;20492;-81
2021/03/28 11:33:23;;;;;;;1.50;1.00;;;16.30;69.30;;;;;;4978945;28;20500;-80
2021/03/28 11:36:13;;;;;;;1.50;0.90;;;16.30;68.50;;;;;;4977934;28;20475;-80
2021/03/28 11:39:05;;;;;;;1.50;1.00;;;16.30;70.00;;;;;;5003831;28;20629;-78
2021/03/28 11:41:47;;;;;;;1.50;0.90;;;16.40;69.40;;;;;;4981188;28;21035;-78
2021/03/28 11:44:34;;;;;;;1.50;0.97;;;16.50;69.50;;;;;;4996833;28;20820;-79
2021/03/28 11:47:23;;;;;;;1.50;1.00;;;16.60;67.90;;;;;;4987443;28;20495;-78
2021/03/28 11:50:07;;;;;;;1.50;0.90;;;16.70;67.90;;;;;;4995011;28;21224;-80
2021/03/28 11:52:56;;;;;;;1.50;1.00;;;16.80;68.30;;;;;;4992085;28;20503;-79
2021/03/28 11:55:35;;;;;;;1.50;0.90;;;17.00;67.70;;;;;;4983634;28;20476;-78
2021/03/28 11:58:25;;;;;;;1.53;1.00;;;17.10;66.90;;;;;;4993158;28;21037;-80
2021/03/28 12:00:53;;;;;;;1.57;1.00;;;17.30;67.30;;;;;;4961904;28;20479;-78
2021/03/28 12:03:33;;;;;;;1.50;0.90;;;17.60;66.40;;;;;;4987797;28;21047;-79
2021/03/28 12:06:03;;;;;;;1.50;0.90;;;17.80;66.70;;;;;;4980597;28;20561;-80
2021/03/28 12:08:33;;;;;;;1.50;0.90;;;17.90;66.40;;;;;;4992180;28;20937;-78
2021/03/28 12:11:34;;;;;;;1.50;0.90;;;17.90;66.50;;;;;;4985935;28;20495;-78
2021/03/28 12:14:16;;;;;;;1.50;0.90;;;18.00;67.20;;;;;;4995583;28;21022;-78
2021/03/28 12:17:23;;;;;;;1.50;0.90;;;18.10;66.70;;;;;;4984604;28;20980;-77
2021/03/28 12:20:08;;;;;;;1.50;0.90;;;18.20;65.80;;;;;;4981716;28;20469;-79
2021/03/28 12:22:46;;;;;;;1.50;0.90;;;18.10;66.00;;;;;;4991222;28;20562;-80
2021/03/28 12:25:24;;;;;;;1.50;0.90;;;17.90;66.70;;;;;;4991013;28;20917;-78
2021/03/28 12:28:29;;;;;;;1.50;0.90;;;17.80;68.50;;;;;;4994767;28;20488;-79
2021/03/28 12:30:57;;;;;;;1.50;1.00;;;17.70;67.20;;;;;;4975946;28;20484;-81
2021/03/28 12:33:45;;;;;;;1.50;0.90;;;17.60;68.00;;;;;;5003422;28;20493;-79
2021/03/28 12:36:17;;;;;;;1.50;0.90;;;17.50;67.90;;;;;;4979129;28;20483;-79
2021/03/28 12:38:48;;;;;;;1.50;1.00;;;17.40;68.00;;;;;;5000652;28;20705;-77
2021/03/28 12:41:23;;;;;;;1.50;1.00;;;17.20;67.90;;;;;;4982041;28;20479;-77
2021/03/28 12:43:54;;;;;;;1.50;0.90;;;17.20;67.40;;;;;;4997582;28;20895;-77
2021/03/28 12:46:50;;;;;;;1.50;0.90;;;17.20;68.10;;;;;;4981404;28;20480;-80
2021/03/28 12:49:21;;;;;;;1.50;0.90;;;17.20;67.60;;;;;;4985768;28;20476;-78
2021/03/28 12:52:00;;;;;;;1.50;0.90;;;17.40;68.00;;;;;;4982584;28;20530;-79
2021/03/28 12:54:29;;;;;;;1.50;0.90;;;17.40;68.00;;;;;;4992015;28;20982;-80
2021/03/28 12:57:01;;;;;;;1.50;1.00;;;17.40;67.10;;;;;;4989303;28;20488;-78
2021/03/28 12:59:34;;;;;;;1.50;0.90;;;17.30;67.60;;;;;;4991171;28;20556;-80
2021/03/28 13:02:21;;;;;;;1.50;1.00;;;17.30;68.20;;;;;;4981697;28;20523;-80
2021/03/28 13:04:53;;;;;;;1.50;0.90;;;17.30;66.80;;;;;;4988342;28;20473;-79
2021/03/28 13:07:41;;;;;;;1.50;1.00;;;17.20;67.30;;;;;;4974665;28;20475;-80
2021/03/28 13:10:16;;;;;;;1.50;0.90;;;17.20;66.70;;;;;;4989062;28;20473;-79
2021/03/28 13:12:43;;;;;;;1.50;0.90;;;17.20;67.20;;;;;;4980837;28;20480;-79
2021/03/28 13:15:21;;;;;;;1.50;1.00;;;17.30;67.40;;;;;;4985370;28;20480;-79
2021/03/28 13:17:50;;;;;;;1.50;0.90;;;17.40;67.90;;;;;;4989867;28;20480;-79
2021/03/28 13:20:25;;;;;;;1.50;0.90;;;17.50;67.30;;;;;;4987470;28;20489;-79
2021/03/28 13:23:04;;;;;;;1.50;0.90;;;17.60;67.40;;;;;;4990028;28;20564;-79
2021/03/28 13:25:32;;;;;;;1.50;0.90;;;17.70;67.20;;;;;;4986714;28;20592;-81
2021/03/28 13:28:27;;;;;;;1.50;1.00;;;17.60;66.80;;;;;;4992026;28;20504;-78
2021/03/28 13:31:45;;;;;;;1.50;0.90;;;17.60;67.00;;;;;;4976702;28;20493;-78
2021/03/28 13:34:31;;;;;;;1.50;0.90;;;17.60;67.90;;;;;;4996251;28;20469;-79
2021/03/28 13:37:08;;;;;;;1.50;0.90;;;17.60;67.30;;;;;;4985704;28;20539;-80
2021/03/28 13:39:40;;;;;;;1.50;0.90;;;17.70;67.20;;;;;;4988862;28;20737;-77
2021/03/28 13:42:16;;;;;;;1.50;0.90;;;17.80;66.90;;;;;;4970491;28;20928;-80
2021/03/28 13:44:54;;;;;;;1.50;0.97;;;17.80;66.40;;;;;;4983736;28;20581;-78
2021/03/28 13:47:35;;;;;;;1.50;1.20;;;17.80;66.40;;;;;;4975161;28;20929;-81
2021/03/28 13:50:19;;;;;;;1.50;1.00;;;17.80;66.50;;;;;;4985749;28;20464;-78
2021/03/28 13:52:46;;;;;;;1.50;0.90;;;17.80;66.00;;;;;;4992191;28;20464;-80
2021/03/28 13:55:29;;;;;;;1.50;0.90;;;17.90;66.30;;;;;;4984315;28;20478;-78
2021/03/28 13:58:07;;;;;;;1.50;0.97;;;17.90;66.20;;;;;;4989623;28;20488;-79
2021/03/28 14:00:36;;;;;;;1.50;0.90;;;18.00;66.50;;;;;;4990083;28;20554;-80
2021/03/28 14:03:16;;;;;;;1.50;0.90;;;17.90;66.10;;;;;;4992751;28;20540;-78
2021/03/28 14:05:44;;;;;;;1.50;1.00;;;17.80;66.30;;;;;;4985338;28;20473;-78
2021/03/28 14:08:16;;;;;;;1.50;0.90;;;17.70;66.20;;;;;;4992866;28;21021;-78
2021/03/28 14:10:52;;;;;;;1.50;1.00;;;17.60;66.40;;;;;;4982581;28;20780;-78
2021/03/28 14:13:23;;;;;;;1.50;0.90;;;17.40;66.90;;;;;;4973700;28;20488;-78
2021/03/28 14:15:55;;;;;;;1.50;0.93;;;17.40;66.60;;;;;;4972972;28;20474;-77
2021/03/28 14:18:36;;;;;;;1.50;1.00;;;17.30;67.20;;;;;;4998511;28;20480;-76
2021/03/28 14:21:30;;;;;;;1.50;1.00;;;17.30;67.40;;;;;;4978757;28;20932;-77
2021/03/28 14:24:22;;;;;;;1.50;0.93;;;17.20;67.60;;;;;;4977826;28;20866;-78
2021/03/28 14:26:52;;;;;;;1.50;0.90;;;17.20;68.20;;;;;;4980314;28;20491;-80
2021/03/28 14:29:41;;;;;;;1.50;0.90;;;17.30;68.20;;;;;;4990977;28;20465;-79
2021/03/28 14:32:22;;;;;;;1.50;0.90;;;17.30;68.00;;;;;;4974583;28;20497;-79
2021/03/28 14:35:28;;;;;;;1.50;0.90;;;17.20;68.10;;;;;;4986916;28;20471;-79